sensor_id;sensor_type;location;lat;lon;timestamp;pressure;altitude;pressure_sealevel;temperature;humidity
39363;BME280;25088;43.238;23.110;2023-03-21T00:01:56;96424.16;;;11.52;66.19
39363;BME280;25088;43.238;23.110;2023-03-21T00:04:22;96419.97;;;11.39;65.61
39363;BME280;25088;43.238;23.110;2023-03-21T00:06:49;96425.72;;;11.43;65.74
39363;BME280;25088;43.238;23.110;2023-03-21T00:09:15;96423.53;;;11.40;64.71
39363;BME280;25088;43.238;23.110;2023-03-21T00:11:40;96424.38;;;11.46;65.07
39363;BME280;25088;43.238;23.110;2023-03-21T00:14:06;96400.25;;;11.32;65.89
39363;BME280;25088;43.238;23.110;2023-03-21T00:16:33;96404.06;;;11.31;65.99
39363;BME280;25088;43.238;23.110;2023-03-21T00:19:00;96419.38;;;11.32;66.11
39363;BME280;25088;43.238;23.110;2023-03-21T00:21:27;96407.53;;;11.22;65.83
39363;BME280;25088;43.238;23.110;2023-03-21T00:23:57;96425.56;;;11.18;66.33
39363;BME280;25088;43.238;23.110;2023-03-21T00:26:23;96427.50;;;11.22;66.38
39363;BME280;25088;43.238;23.110;2023-03-21T00:28:49;96429.13;;;11.23;66.22
39363;BME280;25088;43.238;23.110;2023-03-21T00:31:15;96406.16;;;11.14;66.21
39363;BME280;25088;43.238;23.110;2023-03-21T00:33:40;96425.31;;;11.19;65.46
39363;BME280;25088;43.238;23.110;2023-03-21T00:36:07;96423.09;;;11.16;65.25
39363;BME280;25088;43.238;23.110;2023-03-21T00:38:34;96424.72;;;11.17;65.19
39363;BME280;25088;43.238;23.110;2023-03-21T00:41:05;96428.81;;;11.15;65.35
39363;BME280;25088;43.238;23.110;2023-03-21T00:43:31;96426.38;;;11.18;64.51
39363;BME280;25088;43.238;23.110;2023-03-21T00:45:58;96413.50;;;11.13;63.12
39363;BME280;25088;43.238;23.110;2023-03-21T00:48:24;96388.31;;;11.06;63.01
39363;BME280;25088;43.238;23.110;2023-03-21T00:50:51;96422.06;;;11.27;62.68
39363;BME280;25088;43.238;23.110;2023-03-21T00:53:18;96423.94;;;11.22;63.34
39363;BME280;25088;43.238;23.110;2023-03-21T00:55:44;96413.00;;;11.22;63.78
39363;BME280;25088;43.238;23.110;2023-03-21T00:58:10;96420.09;;;11.18;63.59
39363;BME280;25088;43.238;23.110;2023-03-21T01:00:36;96420.34;;;11.16;63.52
39363;BME280;25088;43.238;23.110;2023-03-21T01:03:02;96409.69;;;11.15;63.45
39363;BME280;25088;43.238;23.110;2023-03-21T01:05:37;96411.31;;;11.10;63.92
39363;BME280;25088;43.238;23.110;2023-03-21T01:08:22;96405.41;;;10.92;65.44
39363;BME280;25088;43.238;23.110;2023-03-21T01:10:49;96419.28;;;10.85;66.16
39363;BME280;25088;43.238;23.110;2023-03-21T01:13:16;96391.81;;;10.65;65.61
39363;BME280;25088;43.238;23.110;2023-03-21T01:15:45;96400.81;;;10.65;66.79
39363;BME280;25088;43.238;23.110;2023-03-21T01:18:12;96406.84;;;10.67;67.32
39363;BME280;25088;43.238;23.110;2023-03-21T01:20:42;96415.28;;;10.66;66.38
39363;BME280;25088;43.238;23.110;2023-03-21T01:23:10;96410.97;;;10.70;65.90
39363;BME280;25088;43.238;23.110;2023-03-21T01:25:36;96406.63;;;10.74;65.15
39363;BME280;25088;43.238;23.110;2023-03-21T01:28:02;96404.25;;;10.82;64.37
39363;BME280;25088;43.238;23.110;2023-03-21T01:30:28;96370.78;;;10.65;64.02
39363;BME280;25088;43.238;23.110;2023-03-21T01:32:54;96411.41;;;10.94;64.70
39363;BME280;25088;43.238;23.110;2023-03-21T01:35:19;96381.53;;;10.77;64.42
39363;BME280;25088;43.238;23.110;2023-03-21T01:37:45;96392.25;;;10.88;63.91
39363;BME280;25088;43.238;23.110;2023-03-21T01:40:19;96405.22;;;11.03;63.69
39363;BME280;25088;43.238;23.110;2023-03-21T01:42:45;96333.34;;;10.60;63.41
39363;BME280;25088;43.238;23.110;2023-03-21T01:48:14;96399.56;;;11.10;62.51
39363;BME280;25088;43.238;23.110;2023-03-21T01:50:41;96383.94;;;11.05;62.51
39363;BME280;25088;43.238;23.110;2023-03-21T01:53:07;96373.34;;;11.14;62.04
39363;BME280;25088;43.238;23.110;2023-03-21T01:55:34;96362.94;;;11.11;62.23
39363;BME280;25088;43.238;23.110;2023-03-21T01:58:02;96382.97;;;11.22;62.59
39363;BME280;25088;43.238;23.110;2023-03-21T02:00:29;96381.34;;;11.26;62.68
39363;BME280;25088;43.238;23.110;2023-03-21T02:02:56;96385.69;;;11.22;63.25
39363;BME280;25088;43.238;23.110;2023-03-21T02:05:31;96387.03;;;11.14;63.23
39363;BME280;25088;43.238;23.110;2023-03-21T02:08:00;96390.03;;;11.18;63.10
39363;BME280;25088;43.238;23.110;2023-03-21T02:10:27;96361.31;;;11.10;61.68
39363;BME280;25088;43.238;23.110;2023-03-21T02:12:55;96367.09;;;11.24;61.89
39363;BME280;25088;43.238;23.110;2023-03-21T02:15:24;96349.06;;;11.23;61.82
39363;BME280;25088;43.238;23.110;2023-03-21T02:17:58;96375.06;;;11.25;62.27
39363;BME280;25088;43.238;23.110;2023-03-21T02:29:28;96385.28;;;11.03;63.60
39363;BME280;25088;43.238;23.110;2023-03-21T02:34:58;96378.16;;;11.02;62.57
39363;BME280;25088;43.238;23.110;2023-03-21T02:40:39;96378.25;;;11.12;62.46
39363;BME280;25088;43.238;23.110;2023-03-21T02:43:16;96320.56;;;10.66;62.91
39363;BME280;25088;43.238;23.110;2023-03-21T02:45:54;96375.38;;;10.92;63.22
39363;BME280;25088;43.238;23.110;2023-03-21T02:48:28;96375.38;;;10.92;62.89
39363;BME280;25088;43.238;23.110;2023-03-21T02:50:59;96360.09;;;10.96;61.07
39363;BME280;25088;43.238;23.110;2023-03-21T02:53:29;96369.72;;;11.03;62.27
39363;BME280;25088;43.238;23.110;2023-03-21T02:55:56;96364.50;;;11.02;62.75
39363;BME280;25088;43.238;23.110;2023-03-21T02:58:24;96357.41;;;11.01;62.50
39363;BME280;25088;43.238;23.110;2023-03-21T03:00:52;96363.38;;;10.98;62.04
39363;BME280;25088;43.238;23.110;2023-03-21T03:03:20;96346.03;;;10.77;63.61
39363;BME280;25088;43.238;23.110;2023-03-21T03:05:54;96360.53;;;10.82;63.43
39363;BME280;25088;43.238;23.110;2023-03-21T03:11:38;96332.78;;;10.58;64.32
39363;BME280;25088;43.238;23.110;2023-03-21T03:20:42;96352.34;;;10.82;62.05
39363;BME280;25088;43.238;23.110;2023-03-21T03:25:48;96350.72;;;10.81;63.00
39363;BME280;25088;43.238;23.110;2023-03-21T03:28:22;96346.31;;;10.75;63.15
39363;BME280;25088;43.238;23.110;2023-03-21T03:30:50;96291.13;;;10.36;63.01
39363;BME280;25088;43.238;23.110;2023-03-21T03:33:16;96355.00;;;10.72;63.45
39363;BME280;25088;43.238;23.110;2023-03-21T03:35:48;96351.09;;;10.63;63.60
39363;BME280;25088;43.238;23.110;2023-03-21T03:38:16;96342.06;;;10.57;63.55
39363;BME280;25088;43.238;23.110;2023-03-21T03:40:47;96347.00;;;10.60;63.88
39363;BME280;25088;43.238;23.110;2023-03-21T03:43:27;96347.28;;;10.64;63.03
39363;BME280;25088;43.238;23.110;2023-03-21T03:45:59;96349.69;;;10.55;63.11
39363;BME280;25088;43.238;23.110;2023-03-21T03:48:33;96338.69;;;10.45;63.43
39363;BME280;25088;43.238;23.110;2023-03-21T03:51:14;96341.69;;;10.49;63.21
39363;BME280;25088;43.238;23.110;2023-03-21T03:53:48;96348.78;;;10.45;62.23
39363;BME280;25088;43.238;23.110;2023-03-21T03:56:16;96356.59;;;10.36;64.26
39363;BME280;25088;43.238;23.110;2023-03-21T03:58:41;96352.63;;;10.22;65.89
39363;BME280;25088;43.238;23.110;2023-03-21T04:01:07;96360.91;;;10.05;66.55
39363;BME280;25088;43.238;23.110;2023-03-21T04:03:35;96357.75;;;9.91;67.68
39363;BME280;25088;43.238;23.110;2023-03-21T04:06:02;96362.38;;;9.91;66.22
39363;BME280;25088;43.238;23.110;2023-03-21T04:08:28;96356.81;;;9.80;66.35
39363;BME280;25088;43.238;23.110;2023-03-21T04:10:54;96365.88;;;9.86;65.71
39363;BME280;25088;43.238;23.110;2023-03-21T04:13:20;96364.28;;;9.90;66.04
39363;BME280;25088;43.238;23.110;2023-03-21T04:15:46;96359.00;;;9.83;65.86
39363;BME280;25088;43.238;23.110;2023-03-21T04:18:11;96364.47;;;9.83;66.83
39363;BME280;25088;43.238;23.110;2023-03-21T04:20:37;96345.41;;;9.62;67.26
39363;BME280;25088;43.238;23.110;2023-03-21T04:23:04;96362.31;;;9.64;66.94
39363;BME280;25088;43.238;23.110;2023-03-21T04:25:33;96356.25;;;9.56;67.24
39363;BME280;25088;43.238;23.110;2023-03-21T04:27:58;96353.06;;;9.43;67.46
39363;BME280;25088;43.238;23.110;2023-03-21T04:30:24;96327.84;;;9.30;67.83
39363;BME280;25088;43.238;23.110;2023-03-21T04:32:50;96353.56;;;9.40;68.17
39363;BME280;25088;43.238;23.110;2023-03-21T04:35:22;96349.66;;;9.30;67.18
39363;BME280;25088;43.238;23.110;2023-03-21T04:37:48;96356.81;;;9.37;67.14
39363;BME280;25088;43.238;23.110;2023-03-21T04:40:14;96357.38;;;9.39;67.43
39363;BME280;25088;43.238;23.110;2023-03-21T04:42:45;96360.97;;;9.44;67.81
39363;BME280;25088;43.238;23.110;2023-03-21T04:45:12;96357.28;;;9.33;67.63
39363;BME280;25088;43.238;23.110;2023-03-21T04:47:37;96361.50;;;9.41;67.61
39363;BME280;25088;43.238;23.110;2023-03-21T04:50:03;96361.81;;;9.45;67.53
39363;BME280;25088;43.238;23.110;2023-03-21T04:52:29;96359.34;;;9.43;67.37
39363;BME280;25088;43.238;23.110;2023-03-21T04:54:54;96363.91;;;9.59;65.78
39363;BME280;25088;43.238;23.110;2023-03-21T04:57:20;96361.25;;;9.65;65.28
39363;BME280;25088;43.238;23.110;2023-03-21T04:59:46;96363.97;;;9.87;63.92
39363;BME280;25088;43.238;23.110;2023-03-21T05:02:12;96353.13;;;9.92;63.71
39363;BME280;25088;43.238;23.110;2023-03-21T05:04:38;96366.09;;;10.06;63.69
39363;BME280;25088;43.238;23.110;2023-03-21T05:07:03;96362.34;;;10.13;63.03
39363;BME280;25088;43.238;23.110;2023-03-21T05:09:29;96356.00;;;10.07;63.93
39363;BME280;25088;43.238;23.110;2023-03-21T05:11:54;96375.03;;;10.24;62.52
39363;BME280;25088;43.238;23.110;2023-03-21T05:14:23;96354.78;;;10.20;62.41
39363;BME280;25088;43.238;23.110;2023-03-21T05:16:48;96370.53;;;10.34;62.24
39363;BME280;25088;43.238;23.110;2023-03-21T05:19:24;96372.22;;;10.41;61.82
39363;BME280;25088;43.238;23.110;2023-03-21T05:22:04;96368.16;;;10.48;62.05
39363;BME280;25088;43.238;23.110;2023-03-21T05:24:30;96343.31;;;10.45;62.12
39363;BME280;25088;43.238;23.110;2023-03-21T05:26:57;96357.38;;;10.64;62.06
39363;BME280;25088;43.238;23.110;2023-03-21T05:29:30;96365.41;;;10.75;61.39
39363;BME280;25088;43.238;23.110;2023-03-21T05:31:56;96300.50;;;10.50;60.54
39363;BME280;25088;43.238;23.110;2023-03-21T05:34:23;96369.22;;;11.11;59.54
39363;BME280;25088;43.238;23.110;2023-03-21T05:36:48;96340.03;;;11.17;58.63
39363;BME280;25088;43.238;23.110;2023-03-21T05:39:14;96362.03;;;11.43;58.24
39363;BME280;25088;43.238;23.110;2023-03-21T05:41:39;96339.59;;;11.35;59.04
39363;BME280;25088;43.238;23.110;2023-03-21T05:44:05;96365.13;;;11.56;59.85
39363;BME280;25088;43.238;23.110;2023-03-21T05:46:31;96350.09;;;11.54;61.08
39363;BME280;25088;43.238;23.110;2023-03-21T05:48:56;96355.09;;;11.77;59.87
39363;BME280;25088;43.238;23.110;2023-03-21T05:51:21;96321.72;;;11.75;57.22
39363;BME280;25088;43.238;23.110;2023-03-21T05:53:47;96311.97;;;11.89;56.18
39363;BME280;25088;43.238;23.110;2023-03-21T05:56:12;96347.63;;;12.25;55.75
39363;BME280;25088;43.238;23.110;2023-03-21T05:58:38;96321.88;;;12.26;56.09
39363;BME280;25088;43.238;23.110;2023-03-21T06:01:04;96331.50;;;12.54;55.52
39363;BME280;25088;43.238;23.110;2023-03-21T06:03:29;96344.91;;;12.71;55.86
39363;BME280;25088;43.238;23.110;2023-03-21T06:05:55;96327.13;;;12.68;56.34
39363;BME280;25088;43.238;23.110;2023-03-21T06:08:20;96348.22;;;12.99;55.40
39363;BME280;25088;43.238;23.110;2023-03-21T06:10:46;96312.59;;;12.93;55.32
39363;BME280;25088;43.238;23.110;2023-03-21T06:13:11;96336.13;;;13.20;54.85
39363;BME280;25088;43.238;23.110;2023-03-21T06:15:37;96338.00;;;13.45;53.95
39363;BME280;25088;43.238;23.110;2023-03-21T06:18:03;96338.25;;;13.54;54.33
39363;BME280;25088;43.238;23.110;2023-03-21T06:20:28;96333.28;;;13.66;53.92
39363;BME280;25088;43.238;23.110;2023-03-21T06:22:54;96344.97;;;13.87;54.08
39363;BME280;25088;43.238;23.110;2023-03-21T06:25:20;96341.06;;;14.08;54.11
39363;BME280;25088;43.238;23.110;2023-03-21T06:27:46;96299.69;;;13.89;52.84
39363;BME280;25088;43.238;23.110;2023-03-21T06:30:12;96334.81;;;14.37;52.28
39363;BME280;25088;43.238;23.110;2023-03-21T06:32:38;96339.72;;;14.50;52.73
39363;BME280;25088;43.238;23.110;2023-03-21T06:35:04;96343.16;;;14.66;52.03
39363;BME280;25088;43.238;23.110;2023-03-21T06:37:29;96343.59;;;14.83;52.48
39363;BME280;25088;43.238;23.110;2023-03-21T06:39:55;96339.31;;;15.01;51.12
39363;BME280;25088;43.238;23.110;2023-03-21T06:42:20;96268.91;;;14.76;50.35
39363;BME280;25088;43.238;23.110;2023-03-21T06:44:46;96337.16;;;15.27;50.26
39363;BME280;25088;43.238;23.110;2023-03-21T06:47:11;96282.94;;;15.04;48.99
39363;BME280;25088;43.238;23.110;2023-03-21T06:49:37;96332.84;;;15.45;49.13
39363;BME280;25088;43.238;23.110;2023-03-21T06:52:02;96317.84;;;15.56;49.22
39363;BME280;25088;43.238;23.110;2023-03-21T06:54:28;96332.19;;;15.82;48.56
39363;BME280;25088;43.238;23.110;2023-03-21T06:56:54;96327.38;;;15.93;48.86
39363;BME280;25088;43.238;23.110;2023-03-21T06:59:20;96327.91;;;16.14;48.34
39363;BME280;25088;43.238;23.110;2023-03-21T07:01:46;96329.88;;;16.32;47.87
39363;BME280;25088;43.238;23.110;2023-03-21T07:04:12;96324.06;;;16.34;47.08
39363;BME280;25088;43.238;23.110;2023-03-21T07:06:38;96335.22;;;16.61;46.69
39363;BME280;25088;43.238;23.110;2023-03-21T07:09:04;96331.16;;;16.77;45.45
39363;BME280;25088;43.238;23.110;2023-03-21T07:11:30;96335.06;;;17.23;43.78
39363;BME280;25088;43.238;23.110;2023-03-21T07:13:56;96330.03;;;17.85;44.83
39363;BME280;25088;43.238;23.110;2023-03-21T07:16:22;96287.13;;;18.29;41.18
39363;BME280;25088;43.238;23.110;2023-03-21T07:18:49;96329.19;;;18.98;38.64
39363;BME280;25088;43.238;23.110;2023-03-21T07:21:16;96332.53;;;19.09;38.74
39363;BME280;25088;43.238;23.110;2023-03-21T07:23:41;96334.06;;;19.15;37.52
39363;BME280;25088;43.238;23.110;2023-03-21T07:26:07;96339.72;;;19.10;37.02
39363;BME280;25088;43.238;23.110;2023-03-21T07:28:33;96320.34;;;19.10;36.66
39363;BME280;25088;43.238;23.110;2023-03-21T07:31:01;96333.09;;;19.20;37.24
39363;BME280;25088;43.238;23.110;2023-03-21T07:33:29;96335.09;;;19.28;37.33
39363;BME280;25088;43.238;23.110;2023-03-21T07:35:55;96338.38;;;19.30;37.21
39363;BME280;25088;43.238;23.110;2023-03-21T07:38:22;96336.69;;;19.20;36.71
39363;BME280;25088;43.238;23.110;2023-03-21T07:40:48;96330.16;;;19.16;38.10
39363;BME280;25088;43.238;23.110;2023-03-21T07:43:15;96305.94;;;18.99;38.45
39363;BME280;25088;43.238;23.110;2023-03-21T07:45:40;96311.44;;;19.22;37.77
39363;BME280;25088;43.238;23.110;2023-03-21T07:48:07;96326.56;;;19.47;37.50
39363;BME280;25088;43.238;23.110;2023-03-21T07:50:33;96310.56;;;19.35;37.06
39363;BME280;25088;43.238;23.110;2023-03-21T07:52:58;96332.31;;;19.50;38.11
39363;BME280;25088;43.238;23.110;2023-03-21T07:55:25;96330.81;;;19.22;37.94
39363;BME280;25088;43.238;23.110;2023-03-21T07:57:50;96335.22;;;19.23;37.90
39363;BME280;25088;43.238;23.110;2023-03-21T08:00:17;96334.91;;;19.24;38.01
39363;BME280;25088;43.238;23.110;2023-03-21T08:02:54;96344.31;;;19.15;37.68
39363;BME280;25088;43.238;23.110;2023-03-21T08:05:28;96347.88;;;19.15;37.41
39363;BME280;25088;43.238;23.110;2023-03-21T08:07:55;96337.44;;;19.12;37.87
39363;BME280;25088;43.238;23.110;2023-03-21T08:10:20;96322.47;;;19.13;37.83
39363;BME280;25088;43.238;23.110;2023-03-21T08:12:46;96339.31;;;19.25;37.37
39363;BME280;25088;43.238;23.110;2023-03-21T08:15:13;96338.41;;;19.61;37.32
39363;BME280;25088;43.238;23.110;2023-03-21T08:17:39;96301.84;;;19.50;37.88
39363;BME280;25088;43.238;23.110;2023-03-21T08:20:06;96324.47;;;19.75;37.50
39363;BME280;25088;43.238;23.110;2023-03-21T08:22:34;96330.34;;;19.82;37.93
39363;BME280;25088;43.238;23.110;2023-03-21T08:25:00;96336.19;;;19.72;37.94
39363;BME280;25088;43.238;23.110;2023-03-21T08:27:26;96325.25;;;19.67;38.55
39363;BME280;25088;43.238;23.110;2023-03-21T08:29:51;96338.19;;;19.88;38.81
39363;BME280;25088;43.238;23.110;2023-03-21T08:32:17;96332.19;;;20.52;37.36
39363;BME280;25088;43.238;23.110;2023-03-21T08:34:44;96332.22;;;21.30;36.50
39363;BME280;25088;43.238;23.110;2023-03-21T08:37:09;96281.22;;;21.44;35.59
39363;BME280;25088;43.238;23.110;2023-03-21T08:39:35;96299.22;;;21.76;35.26
39363;BME280;25088;43.238;23.110;2023-03-21T08:42:00;96325.13;;;21.97;35.31
39363;BME280;25088;43.238;23.110;2023-03-21T08:44:26;96313.13;;;21.76;35.31
39363;BME280;25088;43.238;23.110;2023-03-21T08:46:51;96327.28;;;21.83;35.49
39363;BME280;25088;43.238;23.110;2023-03-21T08:49:17;96322.50;;;22.01;35.50
39363;BME280;25088;43.238;23.110;2023-03-21T08:51:43;96320.72;;;21.96;34.84
39363;BME280;25088;43.238;23.110;2023-03-21T08:54:19;96289.63;;;21.64;35.35
39363;BME280;25088;43.238;23.110;2023-03-21T08:56:45;96322.03;;;21.43;35.99
39363;BME280;25088;43.238;23.110;2023-03-21T08:59:11;96321.28;;;20.99;36.58
39363;BME280;25088;43.238;23.110;2023-03-21T09:01:36;96336.53;;;20.36;37.91
39363;BME280;25088;43.238;23.110;2023-03-21T09:04:02;96345.06;;;19.91;38.86
39363;BME280;25088;43.238;23.110;2023-03-21T09:06:28;96346.19;;;19.90;39.01
39363;BME280;25088;43.238;23.110;2023-03-21T09:08:54;96345.59;;;20.02;38.25
39363;BME280;25088;43.238;23.110;2023-03-21T09:11:21;96332.16;;;20.35;37.76
39363;BME280;25088;43.238;23.110;2023-03-21T09:13:46;96331.78;;;20.28;38.13
39363;BME280;25088;43.238;23.110;2023-03-21T09:16:12;96327.78;;;20.51;37.51
39363;BME280;25088;43.238;23.110;2023-03-21T09:18:37;96308.22;;;20.82;37.08
39363;BME280;25088;43.238;23.110;2023-03-21T09:21:09;96322.06;;;21.26;36.41
39363;BME280;25088;43.238;23.110;2023-03-21T09:23:41;96318.31;;;21.39;36.16
39363;BME280;25088;43.238;23.110;2023-03-21T09:26:09;96306.78;;;21.66;35.52
39363;BME280;25088;43.238;23.110;2023-03-21T09:28:35;96312.66;;;22.12;35.16
39363;BME280;25088;43.238;23.110;2023-03-21T09:31:05;96309.34;;;22.48;35.52
39363;BME280;25088;43.238;23.110;2023-03-21T09:33:37;96281.81;;;22.26;34.88
39363;BME280;25088;43.238;23.110;2023-03-21T09:36:05;96272.69;;;22.46;34.47
39363;BME280;25088;43.238;23.110;2023-03-21T09:38:36;96298.63;;;22.59;34.97
39363;BME280;25088;43.238;23.110;2023-03-21T09:49:03;96311.16;;;20.60;37.15
39363;BME280;25088;43.238;23.110;2023-03-21T09:51:38;96303.66;;;20.60;37.03
39363;BME280;25088;43.238;23.110;2023-03-21T09:56:45;96253.72;;;19.69;37.86
39363;BME280;25088;43.238;23.110;2023-03-21T09:59:21;96283.47;;;19.94;37.93
39363;BME280;25088;43.238;23.110;2023-03-21T10:01:49;96301.72;;;20.04;38.36
39363;BME280;25088;43.238;23.110;2023-03-21T10:04:15;96302.84;;;19.85;38.66
39363;BME280;25088;43.238;23.110;2023-03-21T10:06:55;96275.88;;;19.60;38.42
39363;BME280;25088;43.238;23.110;2023-03-21T10:09:22;96292.97;;;19.62;39.19
39363;BME280;25088;43.238;23.110;2023-03-21T10:12:04;96308.06;;;19.56;39.10
39363;BME280;25088;43.238;23.110;2023-03-21T10:14:36;96306.56;;;19.50;40.02
39363;BME280;25088;43.238;23.110;2023-03-21T10:22:36;96244.03;;;19.57;39.25
39363;BME280;25088;43.238;23.110;2023-03-21T10:25:03;96264.53;;;19.87;38.90
39363;BME280;25088;43.238;23.110;2023-03-21T10:27:29;96283.69;;;20.15;38.54
39363;BME280;25088;43.238;23.110;2023-03-21T10:29:55;96268.03;;;20.36;39.07
39363;BME280;25088;43.238;23.110;2023-03-21T10:32:22;96260.91;;;20.79;38.14
39363;BME280;25088;43.238;23.110;2023-03-21T10:34:52;96276.19;;;21.11;37.96
39363;BME280;25088;43.238;23.110;2023-03-21T10:37:20;96253.53;;;21.56;38.16
39363;BME280;25088;43.238;23.110;2023-03-21T10:39:48;96263.97;;;22.27;36.07
39363;BME280;25088;43.238;23.110;2023-03-21T10:42:27;96261.44;;;22.63;34.97
39363;BME280;25088;43.238;23.110;2023-03-21T10:44:55;96260.09;;;22.82;35.02
39363;BME280;25088;43.238;23.110;2023-03-21T10:47:27;96239.38;;;23.58;34.35
39363;BME280;25088;43.238;23.110;2023-03-21T10:49:54;96245.41;;;24.33;32.67
39363;BME280;25088;43.238;23.110;2023-03-21T10:52:26;96242.66;;;25.45;31.47
39363;BME280;25088;43.238;23.110;2023-03-21T10:55:05;96221.59;;;26.30;30.51
39363;BME280;25088;43.238;23.110;2023-03-21T10:57:32;96244.94;;;26.19;30.19
39363;BME280;25088;43.238;23.110;2023-03-21T11:00:02;96240.19;;;25.88;30.86
39363;BME280;25088;43.238;23.110;2023-03-21T11:02:40;96221.75;;;26.53;30.34
39363;BME280;25088;43.238;23.110;2023-03-21T11:05:18;96241.81;;;26.94;29.65
39363;BME280;25088;43.238;23.110;2023-03-21T11:07:45;96232.31;;;27.61;29.64
39363;BME280;25088;43.238;23.110;2023-03-21T11:10:25;96208.28;;;28.09;28.54
39363;BME280;25088;43.238;23.110;2023-03-21T11:12:55;96207.75;;;28.26;28.73
39363;BME280;25088;43.238;23.110;2023-03-21T11:18:14;96210.56;;;28.53;27.81
39363;BME280;25088;43.238;23.110;2023-03-21T11:20:47;96219.59;;;28.69;27.89
39363;BME280;25088;43.238;23.110;2023-03-21T11:23:14;96225.81;;;27.76;28.42
39363;BME280;25088;43.238;23.110;2023-03-21T11:25:40;96187.94;;;27.01;28.62
39363;BME280;25088;43.238;23.110;2023-03-21T11:28:20;96222.81;;;27.23;28.34
39363;BME280;25088;43.238;23.110;2023-03-21T11:30:54;96219.84;;;26.22;29.56
39363;BME280;25088;43.238;23.110;2023-03-21T11:33:25;96232.13;;;25.70;30.32
39363;BME280;25088;43.238;23.110;2023-03-21T11:38:38;96212.44;;;26.14;29.75
39363;BME280;25088;43.238;23.110;2023-03-21T11:41:05;96227.13;;;26.43;29.25
39363;BME280;25088;43.238;23.110;2023-03-21T11:43:34;96216.38;;;26.45;29.19
39363;BME280;25088;43.238;23.110;2023-03-21T11:48:29;96202.59;;;27.14;29.29
39363;BME280;25088;43.238;23.110;2023-03-21T11:51:03;96207.19;;;27.45;29.10
39363;BME280;25088;43.238;23.110;2023-03-21T11:53:39;96199.06;;;26.97;28.41
39363;BME280;25088;43.238;23.110;2023-03-21T11:59:00;96189.81;;;27.81;28.42
39363;BME280;25088;43.238;23.110;2023-03-21T12:04:12;96190.84;;;25.64;30.59
39363;BME280;25088;43.238;23.110;2023-03-21T12:07:08;96198.69;;;24.98;31.61
39363;BME280;25088;43.238;23.110;2023-03-21T12:09:40;96180.28;;;24.41;32.25
39363;BME280;25088;43.238;23.110;2023-03-21T12:12:26;96189.91;;;24.04;32.84
39363;BME280;25088;43.238;23.110;2023-03-21T12:17:59;96176.69;;;24.41;32.15
39363;BME280;25088;43.238;23.110;2023-03-21T12:20:53;96175.66;;;24.21;32.73
39363;BME280;25088;43.238;23.110;2023-03-21T12:26:25;96183.72;;;23.37;33.84
39363;BME280;25088;43.238;23.110;2023-03-21T12:37:07;96183.09;;;22.74;34.41
39363;BME280;25088;43.238;23.110;2023-03-21T12:39:42;96170.13;;;22.24;34.88
39363;BME280;25088;43.238;23.110;2023-03-21T12:44:49;96172.03;;;21.81;36.01
39363;BME280;25088;43.238;23.110;2023-03-21T12:47:23;96168.63;;;21.76;36.29
39363;BME280;25088;43.238;23.110;2023-03-21T12:52:24;96161.16;;;21.38;36.75
39363;BME280;25088;43.238;23.110;2023-03-21T12:54:56;96116.41;;;20.92;37.41
39363;BME280;25088;43.238;23.110;2023-03-21T12:57:39;96140.34;;;20.42;38.36
39363;BME280;25088;43.238;23.110;2023-03-21T13:00:21;96128.28;;;20.37;38.59
39363;BME280;25088;43.238;23.110;2023-03-21T13:05:32;96157.66;;;20.47;38.57
39363;BME280;25088;43.238;23.110;2023-03-21T13:08:13;96121.09;;;20.28;38.94
39363;BME280;25088;43.238;23.110;2023-03-21T13:10:43;96142.00;;;20.51;38.45
39363;BME280;25088;43.238;23.110;2023-03-21T13:21:31;96144.59;;;20.39;37.90
39363;BME280;25088;43.238;23.110;2023-03-21T13:26:51;96147.03;;;19.80;39.31
39363;BME280;25088;43.238;23.110;2023-03-21T13:32:15;96111.28;;;19.52;39.42
39363;BME280;25088;43.238;23.110;2023-03-21T13:34:53;96140.81;;;19.66;39.40
39363;BME280;25088;43.238;23.110;2023-03-21T13:37:19;96140.44;;;19.50;39.98
39363;BME280;25088;43.238;23.110;2023-03-21T13:39:46;96139.44;;;19.37;40.13
39363;BME280;25088;43.238;23.110;2023-03-21T13:42:21;96112.50;;;19.11;40.48
39363;BME280;25088;43.238;23.110;2023-03-21T13:44:52;96120.50;;;19.22;40.67
39363;BME280;25088;43.238;23.110;2023-03-21T13:47:32;96137.28;;;19.25;40.17
39363;BME280;25088;43.238;23.110;2023-03-21T13:50:20;96130.78;;;19.30;40.39
39363;BME280;25088;43.238;23.110;2023-03-21T13:53:09;96142.50;;;19.27;40.46
39363;BME280;25088;43.238;23.110;2023-03-21T13:55:44;96135.91;;;19.05;40.37
39363;BME280;25088;43.238;23.110;2023-03-21T13:58:32;96145.06;;;18.75;40.77
39363;BME280;25088;43.238;23.110;2023-03-21T14:03:33;96096.28;;;18.03;41.44
39363;BME280;25088;43.238;23.110;2023-03-21T14:05:59;96127.50;;;18.26;41.83
39363;BME280;25088;43.238;23.110;2023-03-21T14:08:27;96128.72;;;18.20;42.04
39363;BME280;25088;43.238;23.110;2023-03-21T14:10:56;96140.41;;;18.17;42.25
39363;BME280;25088;43.238;23.110;2023-03-21T14:13:25;96138.72;;;18.07;41.84
39363;BME280;25088;43.238;23.110;2023-03-21T14:15:58;96143.19;;;18.17;41.82
39363;BME280;25088;43.238;23.110;2023-03-21T14:18:27;96137.47;;;18.13;41.99
39363;BME280;25088;43.238;23.110;2023-03-21T14:20:56;96139.72;;;18.11;42.16
39363;BME280;25088;43.238;23.110;2023-03-21T14:23:23;96119.31;;;17.76;42.59
39363;BME280;25088;43.238;23.110;2023-03-21T14:25:49;96133.09;;;17.62;43.18
39363;BME280;25088;43.238;23.110;2023-03-21T14:28:26;96142.00;;;17.59;43.04
39363;BME280;25088;43.238;23.110;2023-03-21T14:30:57;96111.16;;;17.43;43.44
39363;BME280;25088;43.238;23.110;2023-03-21T14:33:41;96122.28;;;17.52;43.44
39363;BME280;25088;43.238;23.110;2023-03-21T14:36:24;96134.41;;;17.65;43.36
39363;BME280;25088;43.238;23.110;2023-03-21T14:39:03;96138.81;;;17.66;43.81